Time;durP1;ratioP1;P1;durP2;ratioP2;P2;SDS_P1;SDS_P2;PMS_P1;PMS_P2;Temp;Humidity;BMP_temperature;BMP_pressure;BME280_temperature;BME280_humidity;BME280_pressure;Samples;Min_cycle;Max_cycle;Signal;HPM_P1;HPM_P2
2023/06/16 00:01:31;;;;;;;4.18;2.70;;;;;;;;;;4951966;28;20047;-83
2023/06/16 00:04:03;;;;;;;2.72;2.53;;;;;;;;;;4960377;28;20394;-83
2023/06/16 00:06:31;;;;;;;4.55;3.10;;;;;;;;;;4959489;28;20047;-83
2023/06/16 00:09:00;;;;;;;2.92;2.72;;;;;;;;;;4953271;28;20126;-81
2023/06/16 00:11:28;;;;;;;2.72;2.60;;;;;;;;;;4952650;28;20131;-83
2023/06/16 00:13:56;;;;;;;3.13;2.92;;;;;;;;;;4953086;28;20572;-83
2023/06/16 00:16:23;;;;;;;2.80;2.70;;;;;;;;;;4954600;28;20162;-84
2023/06/16 00:18:52;;;;;;;3.00;2.80;;;;;;;;;;4957597;28;20059;-84
2023/06/16 00:21:25;;;;;;;2.60;2.50;;;;;;;;;;4952123;28;20047;-84
2023/06/16 00:23:53;;;;;;;3.10;2.80;;;;;;;;;;4952363;28;20102;-84
2023/06/16 00:26:20;;;;;;;2.83;2.63;;;;;;;;;;4950627;28;20050;-84
2023/06/16 00:28:48;;;;;;;2.97;2.78;;;;;;;;;;4952513;28;20043;-84
2023/06/16 00:31:15;;;;;;;3.05;2.85;;;;;;;;;;4952407;28;20457;-85
2023/06/16 00:33:43;;;;;;;3.05;2.85;;;;;;;;;;4953244;28;20062;-85
2023/06/16 00:36:10;;;;;;;3.13;2.70;;;;;;;;;;4953932;28;20050;-83
2023/06/16 00:38:38;;;;;;;2.95;2.75;;;;;;;;;;4956977;28;20615;-84
2023/06/16 00:41:05;;;;;;;2.97;2.78;;;;;;;;;;4955003;28;20813;-84
2023/06/16 00:43:32;;;;;;;2.78;2.60;;;;;;;;;;4951385;28;20067;-85
2023/06/16 00:46:00;;;;;;;3.20;2.90;;;;;;;;;;4951037;28;20058;-83
2023/06/16 00:48:27;;;;;;;3.30;3.10;;;;;;;;;;4955484;28;20039;-84
2023/06/16 00:50:55;;;;;;;2.78;2.67;;;;;;;;;;4972301;28;20058;-84
2023/06/16 00:53:22;;;;;;;3.08;2.88;;;;;;;;;;4974044;28;20047;-84
2023/06/16 00:55:50;;;;;;;3.28;3.08;;;;;;;;;;4958523;28;20057;-85
2023/06/16 00:58:18;;;;;;;3.05;2.85;;;;;;;;;;4958026;28;20114;-84
2023/06/16 01:00:46;;;;;;;2.45;2.35;;;;;;;;;;4979307;28;20114;-84
2023/06/16 01:03:16;;;;;;;2.95;2.75;;;;;;;;;;4961539;28;20043;-85
2023/06/16 01:05:44;;;;;;;3.47;3.17;;;;;;;;;;4961391;28;20051;-83
2023/06/16 01:08:21;;;;;;;2.83;2.63;;;;;;;;;;4960941;28;20047;-85
2023/06/16 01:11:12;;;;;;;3.40;3.05;;;;;;;;;;4960879;28;20050;-83
2023/06/16 01:13:58;;;;;;;3.22;3.03;;;;;;;;;;4956761;28;20059;-83
2023/06/16 01:16:28;;;;;;;3.08;2.88;;;;;;;;;;4955988;28;20482;-85
2023/06/16 01:18:56;;;;;;;3.13;2.85;;;;;;;;;;4976639;28;20464;-84
2023/06/16 01:21:37;;;;;;;3.08;2.88;;;;;;;;;;4961440;28;20062;-84
2023/06/16 01:24:09;;;;;;;2.60;2.45;;;;;;;;;;4958359;28;20051;-84
2023/06/16 01:26:38;;;;;;;3.50;3.20;;;;;;;;;;4949014;28;20039;-83
2023/06/16 01:29:08;;;;;;;3.40;3.17;;;;;;;;;;4961384;28;20074;-83
2023/06/16 01:31:37;;;;;;;3.67;3.37;;;;;;;;;;4977634;28;20050;-85
2023/06/16 01:34:06;;;;;;;2.95;2.85;;;;;;;;;;4979111;28;20041;-84
2023/06/16 01:36:35;;;;;;;3.30;3.00;;;;;;;;;;4968506;28;20091;-83
2023/06/16 01:39:03;;;;;;;3.50;3.30;;;;;;;;;;4969729;28;20119;-84
2023/06/16 01:41:31;;;;;;;2.97;2.78;;;;;;;;;;4969445;28;20059;-83
2023/06/16 01:44:00;;;;;;;3.22;3.03;;;;;;;;;;4973750;28;20043;-83
2023/06/16 01:46:28;;;;;;;3.30;3.10;;;;;;;;;;4960985;28;20159;-84
2023/06/16 01:48:56;;;;;;;3.72;3.45;;;;;;;;;;4957279;28;20052;-82
2023/06/16 01:51:24;;;;;;;3.13;2.92;;;;;;;;;;4962652;28;20070;-84
2023/06/16 01:53:52;;;;;;;3.58;3.28;;;;;;;;;;4963420;28;20093;-84
2023/06/16 01:56:20;;;;;;;3.53;3.33;;;;;;;;;;4974457;28;20078;-81
2023/06/16 01:58:47;;;;;;;3.97;3.67;;;;;;;;;;4974222;28;20078;-84
2023/06/16 02:01:14;;;;;;;3.40;3.20;;;;;;;;;;4963474;28;20047;-83
2023/06/16 02:03:46;;;;;;;4.95;3.20;;;;;;;;;;4969493;28;20431;-83
2023/06/16 02:06:40;;;;;;;3.80;3.50;;;;;;;;;;4965369;28;20057;-83
2023/06/16 02:09:11;;;;;;;4.03;3.28;;;;;;;;;;4961500;28;20090;-83
2023/06/16 02:11:39;;;;;;;3.60;3.40;;;;;;;;;;4958363;28;20505;-81
2023/06/16 02:14:07;;;;;;;3.90;3.60;;;;;;;;;;4962935;28;20825;-82
2023/06/16 02:16:44;;;;;;;3.40;3.10;;;;;;;;;;4953263;28;20716;-83
2023/06/16 02:19:12;;;;;;;3.47;3.20;;;;;;;;;;4953063;28;20055;-82
2023/06/16 02:21:43;;;;;;;3.33;3.13;;;;;;;;;;4953289;28;20059;-84
2023/06/16 02:24:10;;;;;;;3.30;3.10;;;;;;;;;;4954797;28;20074;-82
2023/06/16 02:26:38;;;;;;;3.70;3.50;;;;;;;;;;4958363;28;20073;-84
2023/06/16 02:29:05;;;;;;;3.40;3.20;;;;;;;;;;4957524;28;20423;-85
2023/06/16 02:31:33;;;;;;;3.67;3.47;;;;;;;;;;4953646;28;20138;-84
2023/06/16 02:34:01;;;;;;;3.58;3.38;;;;;;;;;;4954799;28;20051;-84
2023/06/16 02:36:29;;;;;;;3.83;3.53;;;;;;;;;;4953096;28;20043;-83
2023/06/16 02:38:56;;;;;;;3.85;3.55;;;;;;;;;;4953377;28;20054;-83
2023/06/16 02:41:23;;;;;;;3.90;3.60;;;;;;;;;;4954267;28;20051;-85
2023/06/16 02:43:51;;;;;;;3.85;3.58;;;;;;;;;;4953672;28;20051;-85
2023/06/16 02:46:18;;;;;;;4.25;3.95;;;;;;;;;;4952994;28;20106;-84
2023/06/16 02:48:46;;;;;;;4.10;3.80;;;;;;;;;;4965702;28;20713;-85
2023/06/16 02:51:14;;;;;;;3.72;3.42;;;;;;;;;;4962433;28;20054;-85
2023/06/16 02:53:41;;;;;;;4.18;3.90;;;;;;;;;;4960176;28;20058;-85
2023/06/16 02:56:10;;;;;;;4.28;3.97;;;;;;;;;;4962903;28;20051;-85
2023/06/16 02:58:37;;;;;;;4.45;4.05;;;;;;;;;;4963271;28;20535;-84
2023/06/16 03:01:05;;;;;;;4.03;3.72;;;;;;;;;;4961466;28;20077;-86
2023/06/16 03:03:39;;;;;;;4.20;3.90;;;;;;;;;;4964034;28;20110;-84
2023/06/16 03:06:34;;;;;;;4.60;4.10;;;;;;;;;;4968474;28;20126;-85
2023/06/16 03:09:07;;;;;;;5.00;4.60;;;;;;;;;;4966906;28;20114;-85
2023/06/16 03:11:37;;;;;;;4.63;4.22;;;;;;;;;;4964427;28;20047;-84
2023/06/16 03:14:04;;;;;;;4.60;4.18;;;;;;;;;;4970991;28;20059;-84
2023/06/16 03:16:35;;;;;;;5.32;4.65;;;;;;;;;;4951753;28;20077;-86
2023/06/16 03:19:02;;;;;;;4.43;4.13;;;;;;;;;;4971341;28;20055;-84
2023/06/16 03:21:30;;;;;;;5.18;4.68;;;;;;;;;;4958967;28;20082;-85
2023/06/16 03:23:57;;;;;;;5.00;4.50;;;;;;;;;;4968461;28;20058;-84
2023/06/16 03:26:25;;;;;;;5.57;4.43;;;;;;;;;;4967247;28;20512;-85
2023/06/16 03:29:14;;;;;;;4.90;4.50;;;;;;;;;;4961812;28;20047;-83
2023/06/16 03:31:42;;;;;;;4.75;4.30;;;;;;;;;;4966308;28;20046;-85
2023/06/16 03:34:12;;;;;;;4.30;3.90;;;;;;;;;;4966057;28;20081;-84
2023/06/16 03:36:52;;;;;;;4.40;4.10;;;;;;;;;;4953571;28;20059;-83
2023/06/16 03:39:23;;;;;;;4.35;3.97;;;;;;;;;;4964604;28;20086;-84
2023/06/16 03:41:51;;;;;;;4.75;4.30;;;;;;;;;;4963080;28;20054;-84
2023/06/16 03:44:18;;;;;;;4.35;4.00;;;;;;;;;;4970218;28;20042;-84
2023/06/16 03:46:46;;;;;;;4.43;4.10;;;;;;;;;;4963747;28;20055;-84
2023/06/16 03:49:13;;;;;;;3.78;3.47;;;;;;;;;;4966883;28;20113;-85
2023/06/16 03:51:43;;;;;;;4.45;4.05;;;;;;;;;;4967165;28;20047;-85
2023/06/16 03:54:11;;;;;;;4.20;3.80;;;;;;;;;;4954931;28;20089;-85
2023/06/16 03:56:42;;;;;;;4.65;4.07;;;;;;;;;;4959633;28;20101;-85
2023/06/16 03:59:10;;;;;;;5.03;3.88;;;;;;;;;;4949344;28;20043;-84
2023/06/16 04:01:38;;;;;;;4.47;4.07;;;;;;;;;;4963035;28;20049;-85
2023/06/16 04:04:07;;;;;;;4.38;4.00;;;;;;;;;;4964000;28;20588;-85
2023/06/16 04:06:35;;;;;;;4.00;3.70;;;;;;;;;;4960104;28;20043;-83
2023/06/16 04:09:02;;;;;;;4.03;3.72;;;;;;;;;;4949206;28;20055;-84
2023/06/16 04:11:36;;;;;;;4.13;3.72;;;;;;;;;;4953632;28;20047;-84
2023/06/16 04:14:03;;;;;;;;;;;;;;;;;;4949334;28;20130;-84
2023/06/16 04:16:31;;;;;;;3.40;3.13;;;;;;;;;;4948233;28;19923;-83
2023/06/16 04:19:02;;;;;;;3.55;3.30;;;;;;;;;;4950038;28;20783;-84
2023/06/16 04:21:31;;;;;;;3.92;3.72;;;;;;;;;;4952850;28;20052;-85
2023/06/16 04:23:59;;;;;;;4.10;3.80;;;;;;;;;;4964227;28;20569;-83
2023/06/16 04:26:28;;;;;;;3.55;3.25;;;;;;;;;;4956450;28;20051;-83
2023/06/16 04:29:03;;;;;;;;;;;;;;;;;;4953508;28;20142;-84
2023/06/16 04:31:33;;;;;;;3.53;3.22;;;;;;;;;;4952094;28;19966;-85
2023/06/16 04:34:03;;;;;;;3.60;3.35;;;;;;;;;;4950699;28;20051;-84
2023/06/16 04:36:33;;;;;;;3.70;3.50;;;;;;;;;;4978079;28;20105;-84
2023/06/16 04:39:07;;;;;;;3.30;3.10;;;;;;;;;;4956587;28;20113;-83
2023/06/16 04:41:35;;;;;;;3.15;2.95;;;;;;;;;;4952125;28;20517;-84
2023/06/16 04:44:03;;;;;;;3.30;3.00;;;;;;;;;;4954792;28;20062;-86
2023/06/16 04:46:30;;;;;;;3.35;3.15;;;;;;;;;;4953230;28;20106;-84
2023/06/16 04:48:58;;;;;;;3.30;3.10;;;;;;;;;;4950493;28;20580;-85
2023/06/16 04:51:26;;;;;;;3.42;3.22;;;;;;;;;;4958213;28;20047;-83
2023/06/16 04:53:55;;;;;;;3.20;3.00;;;;;;;;;;4953730;28;20424;-85
2023/06/16 04:56:22;;;;;;;3.67;3.47;;;;;;;;;;4952585;28;20499;-83
2023/06/16 04:58:52;;;;;;;4.20;3.90;;;;;;;;;;4951515;28;20506;-84
2023/06/16 05:01:20;;;;;;;4.47;4.18;;;;;;;;;;4951624;28;20051;-85
2023/06/16 05:03:47;;;;;;;4.57;4.20;;;;;;;;;;4958947;28;20043;-83
2023/06/16 05:06:15;;;;;;;4.90;4.50;;;;;;;;;;4960656;28;20046;-84
2023/06/16 05:08:43;;;;;;;4.10;3.60;;;;;;;;;;4961811;28;20062;-85
2023/06/16 05:11:10;;;;;;;4.18;3.78;;;;;;;;;;4955447;28;20035;-86
2023/06/16 05:13:37;;;;;;;4.05;3.75;;;;;;;;;;4975790;28;20069;-83
2023/06/16 05:16:08;;;;;;;4.03;3.72;;;;;;;;;;4971196;28;20059;-83
2023/06/16 05:18:40;;;;;;;4.43;4.13;;;;;;;;;;4973502;28;20057;-84
2023/06/16 05:21:08;;;;;;;3.58;3.38;;;;;;;;;;4971994;28;20051;-83
2023/06/16 05:23:36;;;;;;;3.80;3.50;;;;;;;;;;4971461;28;20057;-84
2023/06/16 05:26:07;;;;;;;3.88;3.58;;;;;;;;;;4967245;28;20039;-82
2023/06/16 05:28:35;;;;;;;3.60;3.30;;;;;;;;;;4975764;28;20051;-81
2023/06/16 05:31:03;;;;;;;3.75;3.55;;;;;;;;;;4957745;28;20127;-84
2023/06/16 05:33:31;;;;;;;3.80;3.60;;;;;;;;;;4948015;28;20207;-84
2023/06/16 05:36:01;;;;;;;4.18;3.78;;;;;;;;;;4950448;28;20843;-82
2023/06/16 05:38:28;;;;;;;3.90;3.60;;;;;;;;;;4963017;28;20414;-84
2023/06/16 05:40:56;;;;;;;4.28;3.88;;;;;;;;;;4958517;28;20571;-84
2023/06/16 05:43:24;;;;;;;4.10;3.80;;;;;;;;;;4971015;28;20255;-84
2023/06/16 05:45:52;;;;;;;3.97;3.67;;;;;;;;;;4952160;28;20579;-84
2023/06/16 05:48:19;;;;;;;5.20;4.72;;;;;;;;;;4955759;28;20043;-83
2023/06/16 05:50:47;;;;;;;4.85;4.55;;;;;;;;;;4959018;28;20497;-84
2023/06/16 05:53:15;;;;;;;3.90;3.60;;;;;;;;;;4954753;28;20043;-85
2023/06/16 05:55:42;;;;;;;4.00;3.75;;;;;;;;;;4960502;28;20142;-84
2023/06/16 05:58:09;;;;;;;3.47;3.28;;;;;;;;;;4957352;28;20111;-84
2023/06/16 06:00:37;;;;;;;3.38;3.17;;;;;;;;;;4953361;28;20081;-84
2023/06/16 06:03:12;;;;;;;4.00;3.70;;;;;;;;;;4949973;28;20051;-84
2023/06/16 06:05:40;;;;;;;3.60;3.35;;;;;;;;;;4959801;28;20051;-84
2023/06/16 06:08:10;;;;;;;3.35;3.15;;;;;;;;;;4950951;28;20162;-82
2023/06/16 06:10:38;;;;;;;5.13;3.33;;;;;;;;;;4954044;28;20094;-83
2023/06/16 06:13:06;;;;;;;3.47;3.20;;;;;;;;;;4953393;28;20071;-83
2023/06/16 06:15:36;;;;;;;3.20;3.00;;;;;;;;;;4960937;28;20051;-83
2023/06/16 06:18:08;;;;;;;3.70;3.00;;;;;;;;;;4959126;28;20061;-84
2023/06/16 06:20:39;;;;;;;4.05;3.22;;;;;;;;;;4964717;28;20058;-85
2023/06/16 06:23:07;;;;;;;3.25;3.03;;;;;;;;;;4965983;28;20082;-84
2023/06/16 06:25:35;;;;;;;2.97;2.78;;;;;;;;;;4971638;28;20039;-83
2023/06/16 06:28:04;;;;;;;3.55;3.35;;;;;;;;;;4955960;28;20043;-85
2023/06/16 06:30:32;;;;;;;3.13;2.92;;;;;;;;;;4956703;28;20079;-84
2023/06/16 06:33:00;;;;;;;2.97;2.78;;;;;;;;;;4951689;28;20081;-84
2023/06/16 06:35:28;;;;;;;3.88;3.58;;;;;;;;;;4956118;28;20070;-83
2023/06/16 06:37:56;;;;;;;3.47;3.28;;;;;;;;;;4953147;28;20063;-84
2023/06/16 06:40:24;;;;;;;3.20;2.90;;;;;;;;;;4955232;28;20039;-83
2023/06/16 06:42:52;;;;;;;3.00;2.80;;;;;;;;;;4952291;28;20049;-83
2023/06/16 06:45:28;;;;;;;3.25;3.00;;;;;;;;;;4944694;28;20055;-84
2023/06/16 06:47:56;;;;;;;3.28;3.03;;;;;;;;;;4950244;28;20047;-84
2023/06/16 06:50:24;;;;;;;2.97;2.78;;;;;;;;;;4951413;28;20101;-86
2023/06/16 06:52:51;;;;;;;2.67;2.47;;;;;;;;;;4954350;28;20063;-85
2023/06/16 06:55:19;;;;;;;3.10;2.80;;;;;;;;;;4952904;28;20054;-85
2023/06/16 06:57:49;;;;;;;2.65;2.55;;;;;;;;;;4953291;28;20042;-83
2023/06/16 07:00:16;;;;;;;2.75;2.55;;;;;;;;;;4941412;28;20071;-85
2023/06/16 07:02:44;;;;;;;3.00;2.78;;;;;;;;;;4946281;28;20074;-85
2023/06/16 07:05:12;;;;;;;2.67;2.50;;;;;;;;;;4942058;28;20325;-84
2023/06/16 07:07:40;;;;;;;2.30;2.20;;;;;;;;;;4946235;28;20512;-85
2023/06/16 07:10:07;;;;;;;2.50;2.40;;;;;;;;;;4949915;28;20098;-84
2023/06/16 07:12:35;;;;;;;2.70;2.53;;;;;;;;;;4948305;28;20039;-85
2023/06/16 07:15:03;;;;;;;2.55;2.45;;;;;;;;;;4950626;28;20484;-85
2023/06/16 07:17:32;;;;;;;2.45;2.35;;;;;;;;;;4952036;28;20050;-84
2023/06/16 07:20:00;;;;;;;2.67;2.58;;;;;;;;;;4948872;28;20087;-85
2023/06/16 07:22:28;;;;;;;2.70;2.55;;;;;;;;;;4951819;28;20666;-84
2023/06/16 07:24:55;;;;;;;2.95;2.75;;;;;;;;;;4950284;28;20555;-84
2023/06/16 07:27:23;;;;;;;2.42;2.33;;;;;;;;;;4948377;28;20086;-84
2023/06/16 07:29:50;;;;;;;2.05;1.95;;;;;;;;;;4953840;28;20079;-85
2023/06/16 07:32:17;;;;;;;2.20;2.10;;;;;;;;;;4953035;28;20074;-86
2023/06/16 07:34:45;;;;;;;2.30;2.20;;;;;;;;;;4953124;28;20059;-86
2023/06/16 07:37:13;;;;;;;2.95;2.75;;;;;;;;;;4954729;28;20122;-85
2023/06/16 07:39:41;;;;;;;2.58;2.38;;;;;;;;;;4947190;28;20047;-84
2023/06/16 07:42:08;;;;;;;2.38;2.28;;;;;;;;;;4954134;28;20049;-84
2023/06/16 07:44:35;;;;;;;2.28;2.17;;;;;;;;;;4952036;28;20075;-85
2023/06/16 07:47:03;;;;;;;2.20;2.10;;;;;;;;;;4952732;28;20098;-86
2023/06/16 07:49:30;;;;;;;2.10;2.00;;;;;;;;;;4952114;28;20043;-85
2023/06/16 07:51:57;;;;;;;3.15;2.08;;;;;;;;;;4952213;28;20134;-85
2023/06/16 07:54:25;;;;;;;2.35;2.22;;;;;;;;;;4953381;28;20047;-85
2023/06/16 07:56:53;;;;;;;2.20;2.10;;;;;;;;;;4953236;28;20128;-84
2023/06/16 07:59:20;;;;;;;2.35;2.25;;;;;;;;;;4952178;28;20055;-85
2023/06/16 08:01:48;;;;;;;2.55;2.40;;;;;;;;;;4951530;28;20059;-84
2023/06/16 08:04:15;;;;;;;2.28;2.17;;;;;;;;;;4953770;28;20119;-85
2023/06/16 08:06:43;;;;;;;8.23;4.68;;;;;;;;;;4953529;28;20122;-85
2023/06/16 08:09:11;;;;;;;3.08;2.88;;;;;;;;;;4952681;28;20098;-86
2023/06/16 08:11:38;;;;;;;2.40;2.30;;;;;;;;;;4952792;28;20097;-85
2023/06/16 08:14:06;;;;;;;2.00;1.90;;;;;;;;;;4952674;28;20051;-84
2023/06/16 08:16:33;;;;;;;1.73;1.70;;;;;;;;;;4953163;28;20098;-85
2023/06/16 08:19:01;;;;;;;1.75;1.65;;;;;;;;;;4953638;28;20062;-84
2023/06/16 08:21:28;;;;;;;2.65;2.45;;;;;;;;;;4954138;28;20063;-85
2023/06/16 08:23:56;;;;;;;2.40;2.30;;;;;;;;;;4953053;28;20054;-85
2023/06/16 08:26:23;;;;;;;2.70;2.00;;;;;;;;;;4951645;28;20497;-86
2023/06/16 08:28:50;;;;;;;2.60;2.40;;;;;;;;;;4954983;28;20128;-87
2023/06/16 08:31:18;;;;;;;2.25;2.15;;;;;;;;;;4952884;28;20062;-86
2023/06/16 08:33:46;;;;;;;2.10;2.00;;;;;;;;;;4953444;28;20043;-85
2023/06/16 08:36:13;;;;;;;2.10;2.00;;;;;;;;;;4953568;28;20057;-86
2023/06/16 08:38:41;;;;;;;1.50;1.40;;;;;;;;;;4953119;28;20130;-86
2023/06/16 08:41:10;;;;;;;1.90;1.80;;;;;;;;;;4952207;28;20050;-88
2023/06/16 08:43:37;;;;;;;3.15;2.08;;;;;;;;;;4953023;28;20130;-86
2023/06/16 08:46:08;;;;;;;2.50;2.30;;;;;;;;;;4956399;28;20166;-85
2023/06/16 08:48:37;;;;;;;2.70;2.50;;;;;;;;;;4952890;28;20048;-85
2023/06/16 08:51:05;;;;;;;2.25;2.05;;;;;;;;;;4948131;28;20040;-85
2023/06/16 08:53:33;;;;;;;3.30;2.65;;;;;;;;;;4945788;28;20044;-85
2023/06/16 08:56:02;;;;;;;2.42;2.30;;;;;;;;;;4943472;28;20043;-86
2023/06/16 08:58:30;;;;;;;1.98;1.88;;;;;;;;;;4939557;28;20051;-86
2023/06/16 09:00:59;;;;;;;2.20;2.00;;;;;;;;;;4939474;28;20051;-85
2023/06/16 09:03:29;;;;;;;2.10;2.00;;;;;;;;;;4948839;28;20071;-84
2023/06/16 09:05:56;;;;;;;2.10;2.00;;;;;;;;;;4958617;28;20043;-85
2023/06/16 09:08:24;;;;;;;2.05;1.95;;;;;;;;;;4950630;28;20073;-85
2023/06/16 09:10:54;;;;;;;2.50;2.30;;;;;;;;;;4949597;28;20062;-85
2023/06/16 09:13:24;;;;;;;2.67;2.47;;;;;;;;;;4944193;28;20039;-86
2023/06/16 09:15:59;;;;;;;2.20;2.08;;;;;;;;;;4938554;28;20695;-85
2023/06/16 09:18:37;;;;;;;3.75;2.47;;;;;;;;;;4938069;28;20051;-85
2023/06/16 09:21:09;;;;;;;1.70;1.70;;;;;;;;;;4954334;28;20055;-86
2023/06/16 09:23:36;;;;;;;1.80;1.70;;;;;;;;;;4951156;28;20517;-85
2023/06/16 09:26:11;;;;;;;1.95;1.83;;;;;;;;;;4965384;28;20432;-87
2023/06/16 09:28:39;;;;;;;1.83;1.73;;;;;;;;;;4968366;28;20075;-85
2023/06/16 09:31:08;;;;;;;1.92;1.83;;;;;;;;;;4954978;28;20117;-88
2023/06/16 09:33:40;;;;;;;1.60;1.50;;;;;;;;;;4964718;28;20058;-87
2023/06/16 09:36:09;;;;;;;1.90;1.80;;;;;;;;;;4968781;28;20058;-87
2023/06/16 09:38:37;;;;;;;2.05;1.95;;;;;;;;;;4951696;28;20050;-87
2023/06/16 09:41:18;;;;;;;1.83;1.65;;;;;;;;;;4963683;28;20054;-86
2023/06/16 09:43:45;;;;;;;1.60;1.50;;;;;;;;;;4956690;28;20114;-85
2023/06/16 09:46:13;;;;;;;2.28;1.30;;;;;;;;;;4948506;28;20058;-86
2023/06/16 09:48:47;;;;;;;1.67;1.58;;;;;;;;;;4950597;28;20056;-86
2023/06/16 09:51:17;;;;;;;1.60;1.50;;;;;;;;;;4956410;28;20122;-86
2023/06/16 09:53:49;;;;;;;1.50;1.40;;;;;;;;;;4960241;28;20066;-86
2023/06/16 09:56:17;;;;;;;1.80;1.70;;;;;;;;;;4948391;28;20048;-85
2023/06/16 09:58:45;;;;;;;3.63;2.08;;;;;;;;;;4946827;28;20059;-87
2023/06/16 10:01:14;;;;;;;1.95;1.70;;;;;;;;;;4953154;28;20133;-87
2023/06/16 10:03:43;;;;;;;2.10;1.90;;;;;;;;;;4951291;28;20051;-86
2023/06/16 10:06:14;;;;;;;2.13;1.90;;;;;;;;;;4955905;28;20046;-85
2023/06/16 10:08:42;;;;;;;1.70;1.60;;;;;;;;;;4962439;28;20640;-86
2023/06/16 10:11:10;;;;;;;1.50;1.48;;;;;;;;;;4950024;28;20043;-87
2023/06/16 10:13:38;;;;;;;1.50;1.50;;;;;;;;;;4948421;28;20047;-85
2023/06/16 10:16:09;;;;;;;2.13;1.90;;;;;;;;;;4950172;28;20092;-86
2023/06/16 10:18:37;;;;;;;1.70;1.60;;;;;;;;;;4958424;28;20584;-84
2023/06/16 10:21:05;;;;;;;1.55;1.55;;;;;;;;;;4950996;28;20086;-84
2023/06/16 10:23:35;;;;;;;1.50;1.40;;;;;;;;;;4953183;28;20058;-84
2023/06/16 10:26:03;;;;;;;2.70;1.80;;;;;;;;;;4953559;28;20051;-81
2023/06/16 10:28:32;;;;;;;1.42;1.42;;;;;;;;;;4955610;28;20043;-84
2023/06/16 10:31:00;;;;;;;1.42;1.42;;;;;;;;;;4943900;28;20605;-83
2023/06/16 10:33:28;;;;;;;3.25;2.15;;;;;;;;;;4952230;28;20065;-83
2023/06/16 10:35:57;;;;;;;3.05;2.83;;;;;;;;;;4953409;28;20053;-84
2023/06/16 10:38:54;;;;;;;1.40;1.40;;;;;;;;;;4954941;28;20055;-83
2023/06/16 10:41:22;;;;;;;1.88;1.77;;;;;;;;;;4953783;28;20045;-84
2023/06/16 10:43:49;;;;;;;1.63;1.52;;;;;;;;;;4954798;28;20062;-85
2023/06/16 10:46:17;;;;;;;1.40;1.40;;;;;;;;;;4957406;28;20122;-85
2023/06/16 10:48:57;;;;;;;1.60;1.50;;;;;;;;;;4951387;28;20055;-83
2023/06/16 10:51:41;;;;;;;1.60;1.50;;;;;;;;;;4948823;28;20122;-84
2023/06/16 10:54:09;;;;;;;2.65;1.58;;;;;;;;;;4946332;28;20043;-82
2023/06/16 10:56:55;;;;;;;2.00;1.80;;;;;;;;;;4951834;28;20073;-84
2023/06/16 10:59:57;;;;;;;1.70;1.60;;;;;;;;;;4952190;28;20058;-84
2023/06/16 11:02:27;;;;;;;1.50;1.50;;;;;;;;;;4945821;28;20047;-85
2023/06/16 11:05:07;;;;;;;1.48;1.40;;;;;;;;;;4944055;28;20096;-85
2023/06/16 11:07:39;;;;;;;1.67;1.60;;;;;;;;;;4952834;28;20043;-85
2023/06/16 11:10:09;;;;;;;1.60;1.50;;;;;;;;;;4944983;28;20050;-85
2023/06/16 11:12:41;;;;;;;1.50;1.40;;;;;;;;;;4953784;28;20043;-85
2023/06/16 11:15:09;;;;;;;1.75;1.65;;;;;;;;;;4951004;28;20417;-86
2023/06/16 11:17:39;;;;;;;1.58;1.52;;;;;;;;;;4951998;28;20111;-82
2023/06/16 11:20:06;;;;;;;1.55;1.50;;;;;;;;;;4952804;28;20138;-85
2023/06/16 11:22:36;;;;;;;3.22;3.03;;;;;;;;;;4951617;28;20047;-83
2023/06/16 11:25:03;;;;;;;2.28;2.17;;;;;;;;;;4944333;28;20067;-83
2023/06/16 11:27:31;;;;;;;1.77;1.73;;;;;;;;;;4952151;28;20433;-82
2023/06/16 11:29:59;;;;;;;2.10;2.00;;;;;;;;;;4951571;28;20043;-85
2023/06/16 11:32:29;;;;;;;1.58;1.58;;;;;;;;;;4957734;28;20661;-83
2023/06/16 11:34:57;;;;;;;1.90;1.80;;;;;;;;;;4952669;28;20098;-84
2023/06/16 11:37:40;;;;;;;2.10;2.00;;;;;;;;;;4950266;28;20101;-83
2023/06/16 11:40:08;;;;;;;2.92;1.77;;;;;;;;;;4951159;28;20149;-83
2023/06/16 11:42:36;;;;;;;2.22;2.03;;;;;;;;;;4947430;28;20126;-86
2023/06/16 11:45:03;;;;;;;1.80;1.70;;;;;;;;;;4949079;28;20417;-85
2023/06/16 11:47:31;;;;;;;1.98;1.85;;;;;;;;;;4946039;28;20051;-80
2023/06/16 11:49:58;;;;;;;1.90;1.80;;;;;;;;;;4952138;28;20126;-80
2023/06/16 11:52:26;;;;;;;2.00;1.90;;;;;;;;;;4952548;28;20047;-81
2023/06/16 11:54:57;;;;;;;2.08;1.90;;;;;;;;;;4950328;28;20122;-81
2023/06/16 11:57:24;;;;;;;2.20;2.03;;;;;;;;;;4951194;28;20044;-80
2023/06/16 11:59:51;;;;;;;2.15;2.05;;;;;;;;;;4947800;28;20058;-82
2023/06/16 12:02:19;;;;;;;2.50;2.30;;;;;;;;;;4948000;28;20086;-82
2023/06/16 12:04:47;;;;;;;2.95;2.20;;;;;;;;;;4949656;28;20054;-81
2023/06/16 12:07:15;;;;;;;2.33;2.22;;;;;;;;;;4947985;28;20091;-81
2023/06/16 12:09:42;;;;;;;2.20;2.10;;;;;;;;;;4946241;28;20129;-83
2023/06/16 12:12:10;;;;;;;2.30;2.20;;;;;;;;;;4947154;28;20589;-83
2023/06/16 12:14:37;;;;;;;2.55;2.42;;;;;;;;;;4943672;28;20444;-85
2023/06/16 12:17:05;;;;;;;3.08;2.30;;;;;;;;;;4946358;28;20074;-82
2023/06/16 12:19:35;;;;;;;2.53;2.40;;;;;;;;;;4948878;28;20480;-82
2023/06/16 12:22:03;;;;;;;2.15;2.05;;;;;;;;;;4946358;28;20539;-83
2023/06/16 12:24:31;;;;;;;2.47;2.28;;;;;;;;;;4950499;28;20126;-81
2023/06/16 12:27:00;;;;;;;1.95;1.85;;;;;;;;;;4948410;28;20056;-81
2023/06/16 12:29:28;;;;;;;2.60;2.40;;;;;;;;;;4951081;28;20532;-83
2023/06/16 12:31:56;;;;;;;2.47;2.28;;;;;;;;;;4944376;28;20560;-81
2023/06/16 12:34:30;;;;;;;2.55;2.35;;;;;;;;;;4942275;28;20510;-80
2023/06/16 12:37:10;;;;;;;2.22;2.13;;;;;;;;;;4946374;28;20485;-81
2023/06/16 12:39:40;;;;;;;2.53;2.42;;;;;;;;;;4945598;28;20560;-81
2023/06/16 12:42:10;;;;;;;2.55;2.35;;;;;;;;;;4949573;28;20113;-83
2023/06/16 12:44:58;;;;;;;2.40;2.20;;;;;;;;;;4942436;28;20073;-83
2023/06/16 12:47:26;;;;;;;3.35;2.22;;;;;;;;;;4953079;28;20461;-84
2023/06/16 12:49:55;;;;;;;2.35;2.22;;;;;;;;;;4949899;28;20058;-84
2023/06/16 12:52:22;;;;;;;2.17;2.08;;;;;;;;;;4950535;28;20557;-83
2023/06/16 12:54:51;;;;;;;1.98;1.88;;;;;;;;;;4948642;28;20051;-84
2023/06/16 12:57:18;;;;;;;2.00;1.90;;;;;;;;;;4952862;28;20040;-84
2023/06/16 12:59:45;;;;;;;2.08;1.98;;;;;;;;;;4952137;28;20539;-82
2023/06/16 13:02:13;;;;;;;2.38;2.22;;;;;;;;;;4951015;28;20078;-85
2023/06/16 13:04:40;;;;;;;2.40;2.30;;;;;;;;;;4952608;28;20056;-84
2023/06/16 13:07:08;;;;;;;2.15;2.05;;;;;;;;;;4946413;28;20505;-82
2023/06/16 13:09:37;;;;;;;1.90;1.80;;;;;;;;;;4953398;28;20066;-83
2023/06/16 13:12:08;;;;;;;1.83;1.67;;;;;;;;;;4950167;28;20138;-82
2023/06/16 13:14:36;;;;;;;1.63;1.52;;;;;;;;;;4947574;28;20086;-83
2023/06/16 13:17:03;;;;;;;1.88;1.77;;;;;;;;;;4948991;28;20051;-82
2023/06/16 13:19:31;;;;;;;1.88;1.77;;;;;;;;;;4945748;28;20509;-82
2023/06/16 13:21:58;;;;;;;1.80;1.70;;;;;;;;;;4937923;28;20201;-82
2023/06/16 13:24:25;;;;;;;2.20;2.10;;;;;;;;;;4950897;28;20093;-84
2023/06/16 13:26:53;;;;;;;1.90;1.80;;;;;;;;;;4949999;28;20051;-81
2023/06/16 13:29:20;;;;;;;1.80;1.70;;;;;;;;;;4944982;28;20078;-82
2023/06/16 13:31:48;;;;;;;3.53;1.95;;;;;;;;;;4946369;28;20039;-85
2023/06/16 13:34:15;;;;;;;1.80;1.70;;;;;;;;;;4950054;28;20663;-82
2023/06/16 13:36:42;;;;;;;1.50;1.40;;;;;;;;;;4947943;28;20051;-82
2023/06/16 13:39:10;;;;;;;1.60;1.60;;;;;;;;;;4948981;28;20102;-84
2023/06/16 13:41:38;;;;;;;1.27;1.27;;;;;;;;;;4949637;28;20047;-84
2023/06/16 13:44:05;;;;;;;1.92;1.83;;;;;;;;;;4958518;28;20118;-85
2023/06/16 13:46:33;;;;;;;1.70;1.60;;;;;;;;;;4958695;28;20070;-85
2023/06/16 13:49:00;;;;;;;1.45;1.35;;;;;;;;;;4954109;28;20059;-84
2023/06/16 13:51:27;;;;;;;1.52;1.50;;;;;;;;;;4950200;28;20036;-85
2023/06/16 13:53:55;;;;;;;1.17;1.17;;;;;;;;;;4951864;28;20106;-86
2023/06/16 13:56:22;;;;;;;1.40;1.40;;;;;;;;;;4952562;28;20054;-85
2023/06/16 13:58:49;;;;;;;1.67;1.52;;;;;;;;;;4953783;28;20047;-85
2023/06/16 14:01:17;;;;;;;1.60;1.50;;;;;;;;;;4951068;28;20050;-87
2023/06/16 14:03:44;;;;;;;1.90;1.80;;;;;;;;;;4955189;28;20051;-86
2023/06/16 14:06:13;;;;;;;1.90;1.80;;;;;;;;;;4953876;28;20356;-85
2023/06/16 14:08:40;;;;;;;1.67;1.58;;;;;;;;;;4953693;28;20109;-85
2023/06/16 14:11:07;;;;;;;2.25;1.60;;;;;;;;;;4954529;28;20101;-86
2023/06/16 14:13:38;;;;;;;1.90;1.43;;;;;;;;;;4954743;28;20057;-85
2023/06/16 14:16:05;;;;;;;2.08;1.90;;;;;;;;;;4954007;28;20293;-86
2023/06/16 14:18:33;;;;;;;2.60;2.50;;;;;;;;;;4957402;28;20051;-85
2023/06/16 14:21:00;;;;;;;1.85;1.75;;;;;;;;;;4953552;28;20043;-87
2023/06/16 14:23:28;;;;;;;2.17;1.70;;;;;;;;;;4953488;28;20071;-85
2023/06/16 14:25:56;;;;;;;1.58;1.58;;;;;;;;;;4954329;28;20202;-85
2023/06/16 14:28:23;;;;;;;2.10;2.00;;;;;;;;;;4953461;28;20045;-84
2023/06/16 14:30:50;;;;;;;2.00;1.90;;;;;;;;;;4950495;28;20049;-87
2023/06/16 14:33:18;;;;;;;2.50;2.30;;;;;;;;;;4951059;28;20051;-86
2023/06/16 14:35:45;;;;;;;2.00;1.83;;;;;;;;;;4953132;28;20067;-85
2023/06/16 14:38:13;;;;;;;2.25;1.80;;;;;;;;;;4954949;28;20536;-85
2023/06/16 14:40:41;;;;;;;1.98;1.70;;;;;;;;;;4955390;28;20051;-86
2023/06/16 14:43:08;;;;;;;2.15;2.05;;;;;;;;;;4954734;28;20058;-85
2023/06/16 14:45:35;;;;;;;2.88;2.00;;;;;;;;;;4955060;28;20043;-85
2023/06/16 14:48:03;;;;;;;2.08;1.98;;;;;;;;;;4956443;28;20525;-85
2023/06/16 14:50:30;;;;;;;1.90;1.80;;;;;;;;;;4955065;28;20493;-85
2023/06/16 14:52:57;;;;;;;2.97;2.78;;;;;;;;;;4954692;28;20121;-84
2023/06/16 14:55:25;;;;;;;2.22;2.08;;;;;;;;;;4953510;28;20081;-85